Time;durP1;ratioP1;P1;durP2;ratioP2;P2;SDS_P1;SDS_P2;PMS_P1;PMS_P2;Temp;Humidity;BMP_temperature;BMP_pressure;BME280_temperature;BME280_humidity;BME280_pressure;Samples;Min_cycle;Max_cycle;Signal;HPM_P1;HPM_P2
2021/08/04 00:01:36;;;;;;;4.50;2.10;;;;;;;15.02;73.73;100587.53;125044;1093;64362;-82
2021/08/04 00:04:04;;;;;;;3.20;1.60;;;;;;;15.03;73.82;100586.52;125013;1092;64236;-81
2021/08/04 00:06:35;;;;;;;3.70;1.80;;;;;;;15.04;73.91;100592.67;125011;1093;64272;-80
2021/08/04 00:09:02;;;;;;;3.87;1.80;;;;;;;15.05;74.03;100595.15;125007;1092;64297;-81
2021/08/04 00:11:29;;;;;;;3.97;1.40;;;;;;;15.06;74.25;100595.96;125121;1093;64290;-80
2021/08/04 00:13:56;;;;;;;3.67;1.70;;;;;;;15.07;74.17;100598.44;125140;1093;64272;-82
2021/08/04 00:16:24;;;;;;;3.33;1.83;;;;;;;15.06;74.12;100594.10;125153;1092;64285;-80
2021/08/04 00:18:51;;;;;;;3.57;1.80;;;;;;;15.07;74.29;100594.95;125019;1093;64277;-83
2021/08/04 00:21:18;;;;;;;2.95;2.10;;;;;;;15.05;74.34;100597.81;125143;1092;65550;-81
2021/08/04 00:23:46;;;;;;;2.85;1.85;;;;;;;15.04;74.23;100595.34;124993;1092;64310;-82
2021/08/04 00:26:13;;;;;;;3.47;1.87;;;;;;;15.02;74.24;100600.88;125060;1093;64268;-82
2021/08/04 00:28:40;;;;;;;3.90;1.63;;;;;;;15.01;74.18;100593.91;125085;1093;64384;-81
2021/08/04 00:31:08;;;;;;;6.67;1.63;;;;;;;15.01;74.42;100601.93;125117;1093;64311;-82
2021/08/04 00:33:35;;;;;;;3.00;1.80;;;;;;;15.01;74.46;100601.93;125042;1092;64286;-82
2021/08/04 00:36:03;;;;;;;4.07;1.90;;;;;;;15.03;74.17;100594.53;125044;1093;64383;-81
2021/08/04 00:38:30;;;;;;;2.20;1.30;;;;;;;15.06;74.20;100598.63;125082;1092;64152;-80
2021/08/04 00:40:57;;;;;;;4.80;2.00;;;;;;;15.07;74.29;100605.63;124983;1093;64290;-81
2021/08/04 00:43:24;;;;;;;3.00;1.87;;;;;;;15.08;74.48;100602.73;125288;1093;64166;-80
2021/08/04 00:45:51;;;;;;;4.37;2.07;;;;;;;15.12;74.31;100610.36;125200;1093;64374;-83
2021/08/04 00:48:19;;;;;;;6.53;2.20;;;;;;;15.12;74.62;100607.69;125168;1093;64233;-80
2021/08/04 00:50:46;;;;;;;4.50;2.13;;;;;;;15.13;74.71;100609.31;125349;1092;64195;-80
2021/08/04 00:53:37;;;;;;;3.73;1.93;;;;;;;15.14;74.34;100602.95;124994;1093;64358;-83
2021/08/04 00:56:08;;;;;;;2.30;1.50;;;;;;;15.14;74.69;100608.30;125121;1093;65489;-80
2021/08/04 00:58:39;;;;;;;3.37;1.90;;;;;;;15.12;74.66;100599.67;125134;1093;64250;-79
2021/08/04 01:01:15;;;;;;;4.53;1.80;;;;;;;15.11;75.00;100601.52;125245;1093;64362;-82
2021/08/04 01:03:45;;;;;;;4.10;1.70;;;;;;;15.12;75.02;100602.34;126093;1092;64193;-79
2021/08/04 01:06:21;;;;;;;3.75;1.70;;;;;;;15.12;74.88;100596.99;125063;1093;64757;-82
2021/08/04 01:08:56;;;;;;;2.90;1.60;;;;;;;15.13;74.88;100604.81;125120;1093;64248;-79
2021/08/04 01:11:30;;;;;;;8.03;1.60;;;;;;;15.13;75.44;100611.98;125195;1092;64287;-80
2021/08/04 01:14:00;;;;;;;7.07;2.40;;;;;;;15.10;75.10;100610.55;125879;1092;64311;-81
2021/08/04 01:16:31;;;;;;;5.13;2.30;;;;;;;15.08;75.26;100604.59;125257;1092;64250;-80
2021/08/04 01:19:20;;;;;;;4.23;2.50;;;;;;;15.04;75.39;100606.84;125206;1093;64323;-82
2021/08/04 01:22:27;;;;;;;2.83;1.70;;;;;;;15.04;75.22;100608.70;125165;1092;64272;-81
2021/08/04 01:25:09;;;;;;;3.10;1.97;;;;;;;15.03;75.24;100605.22;125129;1093;64390;-81
2021/08/04 01:27:38;;;;;;;4.70;1.97;;;;;;;15.02;75.29;100600.88;125543;1093;64398;-80
2021/08/04 01:30:10;;;;;;;4.73;2.00;;;;;;;15.00;75.40;100589.62;125055;1093;64291;-82
2021/08/04 01:32:39;;;;;;;2.97;2.10;;;;;;;14.99;75.53;100595.97;125122;1093;64326;-81
2021/08/04 01:35:08;;;;;;;2.83;2.00;;;;;;;14.99;75.86;100598.64;125172;1092;64161;-83
2021/08/04 01:37:38;;;;;;;3.40;2.13;;;;;;;14.99;75.77;100598.64;125032;1093;64307;-81
2021/08/04 01:40:08;;;;;;;3.10;1.73;;;;;;;14.98;75.88;100590.83;125142;1092;64288;-82
2021/08/04 01:42:38;;;;;;;3.23;2.00;;;;;;;14.98;76.20;100602.36;125112;1093;64291;-81
2021/08/04 01:45:07;;;;;;;4.40;2.90;;;;;;;14.97;76.20;100599.88;125229;1092;64275;-80
2021/08/04 01:47:36;;;;;;;2.25;2.00;;;;;;;14.94;75.94;100590.44;125046;1092;64269;-80
2021/08/04 01:50:04;;;;;;;3.07;1.97;;;;;;;14.95;76.25;100597.41;125090;1093;64269;-81
2021/08/04 01:52:32;;;;;;;2.83;1.80;;;;;;;14.95;75.85;100601.94;125047;1093;64375;-81
2021/08/04 01:55:00;;;;;;;3.37;1.80;;;;;;;14.95;76.23;100596.59;125055;1092;64259;-81
2021/08/04 01:57:27;;;;;;;3.73;1.53;;;;;;;14.96;75.92;100592.88;125132;1092;64311;-83
2021/08/04 01:59:55;;;;;;;4.10;1.90;;;;;;;14.95;76.11;100597.41;125054;1093;64217;-80
2021/08/04 02:02:24;;;;;;;4.43;2.07;;;;;;;14.94;76.30;100595.78;124995;1092;64291;-80
2021/08/04 02:04:52;;;;;;;3.23;2.00;;;;;;;14.90;76.25;100597.22;125174;1093;64346;-80
2021/08/04 02:07:41;;;;;;;3.03;2.00;;;;;;;14.86;76.64;100598.66;125096;1093;64195;-86
2021/08/04 02:10:14;;;;;;;5.20;2.13;;;;;;;14.81;76.80;100587.75;125093;1093;64285;-81
2021/08/04 02:12:48;;;;;;;4.33;1.87;;;;;;;14.79;76.59;100581.79;125173;1092;65826;-80
2021/08/04 02:15:19;;;;;;;3.33;1.70;;;;;;;14.78;76.85;100585.50;125423;1093;64201;-80
2021/08/04 02:17:50;;;;;;;4.70;2.00;;;;;;;14.77;77.27;100579.34;125160;1093;64267;-81
2021/08/04 02:20:27;;;;;;;3.27;1.60;;;;;;;14.77;77.16;100583.84;125284;1093;64308;-81
2021/08/04 02:23:03;;;;;;;3.53;1.63;;;;;;;14.76;77.10;100577.69;125123;1093;64177;-83
2021/08/04 02:25:37;;;;;;;4.30;2.27;;;;;;;14.77;77.13;100578.50;125495;1093;64275;-81
2021/08/04 02:28:08;;;;;;;3.00;2.17;;;;;;;14.79;77.42;100581.79;125326;1093;64309;-80
2021/08/04 02:30:36;;;;;;;3.63;1.87;;;;;;;14.79;77.60;100581.79;125114;1092;65085;-82
2021/08/04 02:33:05;;;;;;;4.10;1.67;;;;;;;14.77;77.28;100578.50;125244;1092;64217;-81
2021/08/04 02:35:32;;;;;;;3.43;2.10;;;;;;;14.75;77.30;100581.39;125999;1093;64278;-82
2021/08/04 02:37:59;;;;;;;3.40;2.10;;;;;;;14.75;77.39;100575.21;125245;1092;64256;-81
2021/08/04 02:40:27;;;;;;;2.77;1.80;;;;;;;14.72;77.41;100575.64;125401;1093;64342;-81
2021/08/04 02:42:55;;;;;;;6.83;1.90;;;;;;;14.72;77.75;100570.30;125042;1092;64263;-81
2021/08/04 02:45:23;;;;;;;3.83;1.90;;;;;;;14.72;77.86;100575.64;125153;1093;64375;-82
2021/08/04 02:47:52;;;;;;;4.87;1.90;;;;;;;14.71;77.81;100579.34;126202;1093;64169;-81
2021/08/04 02:50:20;;;;;;;4.00;2.27;;;;;;;14.71;77.56;100580.16;126493;1092;64156;-82
2021/08/04 02:52:48;;;;;;;3.13;2.30;;;;;;;14.72;77.93;100580.98;126246;1093;64329;-83
2021/08/04 02:55:16;;;;;;;3.07;2.07;;;;;;;14.72;78.01;100586.31;125201;1092;64826;-81
2021/08/04 02:57:44;;;;;;;2.97;1.97;;;;;;;14.68;77.65;100585.89;125063;1092;64354;-83
2021/08/04 03:00:12;;;;;;;2.30;1.60;;;;;;;14.62;78.42;100587.55;125264;1093;64223;-82
2021/08/04 03:02:39;;;;;;;3.30;1.63;;;;;;;14.54;78.94;100579.70;125066;1093;64291;-81
2021/08/04 03:05:07;;;;;;;3.80;2.60;;;;;;;14.49;79.19;100582.14;125218;1093;64342;-84
2021/08/04 03:07:34;;;;;;;3.30;2.00;;;;;;;14.46;79.01;100582.56;125024;1093;64352;-81
2021/08/04 03:10:02;;;;;;;4.70;1.90;;;;;;;14.43;79.30;100588.33;125508;1093;64195;-82
2021/08/04 03:12:30;;;;;;;3.13;2.00;;;;;;;14.42;79.23;100583.99;125401;1092;64387;-82
2021/08/04 03:14:57;;;;;;;5.57;2.60;;;;;;;14.40;79.42;100580.70;125149;1093;64294;-80
2021/08/04 03:17:24;;;;;;;3.47;1.80;;;;;;;14.41;79.55;100590.38;125173;1093;64380;-83
2021/08/04 03:19:51;;;;;;;5.90;2.70;;;;;;;14.38;79.50;100580.90;125297;1091;64349;-82
2021/08/04 03:22:18;;;;;;;3.47;2.00;;;;;;;14.41;79.88;100582.36;125154;1093;64315;-82
2021/08/04 03:24:46;;;;;;;4.00;2.40;;;;;;;14.40;79.73;100591.38;125130;1093;64269;-82
2021/08/04 03:27:13;;;;;;;5.17;1.50;;;;;;;14.39;79.96;100592.42;125300;1093;64381;-85
2021/08/04 03:29:40;;;;;;;2.73;1.93;;;;;;;14.40;79.50;100588.71;125083;1092;64846;-82
2021/08/04 03:32:07;;;;;;;3.40;1.73;;;;;;;14.38;79.99;100591.58;125521;1093;64217;-81
2021/08/04 03:34:34;;;;;;;2.63;1.60;;;;;;;14.36;80.11;100587.47;125533;1092;64247;-82
2021/08/04 03:37:02;;;;;;;3.67;1.97;;;;;;;14.37;79.80;100586.46;126281;1093;64188;-83
2021/08/04 03:39:29;;;;;;;5.57;1.77;;;;;;;14.39;79.92;100589.75;125409;1093;64224;-81
2021/08/04 03:41:56;;;;;;;3.50;2.27;;;;;;;14.41;80.18;100590.38;125335;1093;64653;-81
2021/08/04 03:44:23;;;;;;;3.90;2.50;;;;;;;14.42;80.13;100592.81;125194;1093;64352;-83
2021/08/04 03:46:50;;;;;;;3.50;1.93;;;;;;;14.43;80.21;100588.33;125296;1092;64278;-83
2021/08/04 03:49:17;;;;;;;2.90;2.20;;;;;;;14.44;80.14;100596.10;125409;1092;64280;-82
2021/08/04 03:51:44;;;;;;;7.20;2.17;;;;;;;14.45;80.33;100587.09;125275;1093;64157;-80
2021/08/04 03:54:12;;;;;;;2.60;1.80;;;;;;;14.46;80.18;100588.72;125229;1092;64217;-82
2021/08/04 03:56:39;;;;;;;6.70;2.17;;;;;;;14.46;80.46;100593.24;125198;1093;64320;-83
2021/08/04 03:59:06;;;;;;;4.40;2.00;;;;;;;14.47;80.17;100600.20;125057;1092;64266;-79
2021/08/04 04:01:33;;;;;;;4.80;2.17;;;;;;;14.46;80.20;100595.91;125206;1092;64281;-81
2021/08/04 04:04:00;;;;;;;3.97;2.40;;;;;;;14.44;80.65;100600.63;125404;1092;64327;-82
2021/08/04 04:06:27;;;;;;;2.93;1.90;;;;;;;14.43;81.13;100599.81;125442;1093;64224;-82
2021/08/04 04:08:55;;;;;;;2.90;2.00;;;;;;;14.41;80.51;100606.38;125502;1093;64340;-82
2021/08/04 04:11:22;;;;;;;3.60;2.13;;;;;;;14.40;80.61;100599.39;125239;1093;64242;-81
2021/08/04 04:13:49;;;;;;;5.03;2.40;;;;;;;14.41;81.06;100609.05;125347;1092;64376;-81
2021/08/04 04:16:16;;;;;;;2.93;2.10;;;;;;;14.41;80.91;100620.55;125095;1093;64291;-80
2021/08/04 04:18:44;;;;;;;5.00;1.90;;;;;;;14.43;80.94;100620.34;125045;1092;64269;-72
2021/08/04 04:21:11;;;;;;;4.43;2.40;;;;;;;14.44;81.44;100611.30;124658;1093;64413;-74
2021/08/04 04:23:38;;;;;;;4.17;2.07;;;;;;;14.45;81.33;100608.44;124934;1093;64288;-76
2021/08/04 04:26:05;;;;;;;2.60;1.77;;;;;;;14.49;81.36;100611.51;124957;1093;64395;-74
2021/08/04 04:28:32;;;;;;;3.93;1.80;;;;;;;14.51;81.07;100617.47;124915;1093;64661;-75
2021/08/04 04:30:59;;;;;;;3.10;2.00;;;;;;;14.53;81.26;100620.76;124738;1093;64287;-73
2021/08/04 04:33:26;;;;;;;3.97;2.23;;;;;;;14.55;81.19;100620.56;124907;1093;64384;-75
2021/08/04 04:35:55;;;;;;;3.27;2.40;;;;;;;14.55;81.35;100624.08;124959;1093;64295;-74
2021/08/04 04:38:22;;;;;;;4.10;2.10;;;;;;;14.57;81.28;100618.55;124855;1093;64788;-75
2021/08/04 04:40:49;;;;;;;5.43;2.30;;;;;;;14.59;80.88;100622.65;124955;1093;64275;-74
2021/08/04 04:43:16;;;;;;;3.75;1.90;;;;;;;14.61;80.76;100620.59;124932;1093;64661;-74
2021/08/04 04:45:43;;;;;;;3.77;2.10;;;;;;;14.63;81.34;100628.41;124951;1093;64234;-72
2021/08/04 04:48:10;;;;;;;8.40;3.63;;;;;;;14.65;80.89;100621.84;124863;1093;64221;-74
2021/08/04 04:50:37;;;;;;;4.57;2.07;;;;;;;14.67;81.10;100626.98;124723;1092;64268;-75
2021/08/04 04:53:05;;;;;;;5.00;2.30;;;;;;;14.71;80.87;100624.73;124920;1093;64187;-75
2021/08/04 04:55:32;;;;;;;2.50;1.90;;;;;;;14.73;80.96;100636.01;124970;1093;64281;-75
2021/08/04 04:58:02;;;;;;;3.40;1.80;;;;;;;14.74;81.07;100638.48;124939;1093;64290;-77
2021/08/04 05:00:29;;;;;;;2.85;2.05;;;;;;;14.74;81.16;100638.48;124929;1093;64285;-75
2021/08/04 05:02:57;;;;;;;6.40;2.50;;;;;;;14.74;80.94;100635.00;124846;1093;64310;-75
2021/08/04 05:05:24;;;;;;;2.67;1.80;;;;;;;14.76;80.77;100630.27;124772;1093;64441;-75
2021/08/04 05:07:51;;;;;;;4.60;1.93;;;;;;;14.76;80.27;100635.62;124975;1093;64291;-75
2021/08/04 05:10:18;;;;;;;3.63;1.67;;;;;;;14.78;80.39;100634.38;125089;1093;64476;-76
2021/08/04 05:12:45;;;;;;;3.97;1.73;;;;;;;14.83;80.35;100636.44;127995;1093;64200;-73
2021/08/04 05:15:16;;;;;;;2.60;1.75;;;;;;;14.85;80.42;100642.39;125240;1093;64244;-74
2021/08/04 05:17:47;;;;;;;3.13;2.07;;;;;;;14.86;80.14;100639.53;124926;1093;64243;-72
2021/08/04 05:20:14;;;;;;;3.17;1.93;;;;;;;14.89;79.94;100638.29;124998;1092;64276;-75
2021/08/04 05:22:42;;;;;;;4.23;2.00;;;;;;;14.93;79.77;100650.21;125146;1093;64339;-76
2021/08/04 05:25:11;;;;;;;4.17;2.33;;;;;;;14.98;79.76;100649.59;124800;1093;64314;-75
2021/08/04 05:27:38;;;;;;;3.55;1.85;;;;;;;15.02;79.73;100646.30;124895;1093;64308;-77
2021/08/04 05:30:06;;;;;;;4.27;2.10;;;;;;;15.07;79.67;100643.85;124866;1092;64310;-75
2021/08/04 05:32:32;;;;;;;2.27;1.60;;;;;;;15.12;79.92;100650.43;125135;1093;64284;-74
2021/08/04 05:34:59;;;;;;;4.90;2.10;;;;;;;15.13;79.38;100650.23;124958;1092;64372;-75
2021/08/04 05:37:26;;;;;;;2.93;2.07;;;;;;;15.16;79.32;100649.81;125033;1093;64307;-75
2021/08/04 05:39:53;;;;;;;4.87;2.20;;;;;;;15.21;79.34;100643.84;124989;1093;64284;-75
2021/08/04 05:42:20;;;;;;;6.13;2.50;;;;;;;15.25;79.44;100656.58;124842;1093;64304;-76
2021/08/04 05:44:47;;;;;;;5.10;2.00;;;;;;;15.29;79.30;100655.14;125067;1093;64198;-76
2021/08/04 05:47:16;;;;;;;2.60;1.83;;;;;;;15.35;78.98;100650.83;124978;1092;64383;-75
2021/08/04 05:49:43;;;;;;;3.00;1.80;;;;;;;15.43;79.05;100657.81;124985;1093;64652;-76
2021/08/04 05:52:10;;;;;;;3.90;1.80;;;;;;;15.50;78.78;100654.09;124952;1093;64284;-76
2021/08/04 05:54:37;;;;;;;3.50;2.00;;;;;;;15.60;78.75;100660.88;124998;1093;64760;-79
2021/08/04 05:57:04;;;;;;;4.13;1.80;;;;;;;15.66;78.19;100663.53;124972;1093;64272;-73
2021/08/04 05:59:31;;;;;;;3.87;2.00;;;;;;;15.69;77.57;100663.09;124782;1093;64371;-74
2021/08/04 06:01:59;;;;;;;2.77;1.77;;;;;;;15.73;77.32;100652.84;124985;1093;64285;-77
2021/08/04 06:04:26;;;;;;;2.87;1.77;;;;;;;15.82;77.52;100656.92;124931;1093;64329;-76
2021/08/04 06:06:53;;;;;;;3.40;1.77;;;;;;;15.89;77.06;100656.90;124980;1093;64221;-76
2021/08/04 06:09:20;;;;;;;2.50;1.50;;;;;;;15.98;77.03;100657.48;124986;1092;64323;-76
2021/08/04 06:11:47;;;;;;;5.13;1.90;;;;;;;16.06;76.39;100667.95;124867;1092;64303;-76
2021/08/04 06:14:14;;;;;;;2.10;1.43;;;;;;;16.15;76.52;100664.03;124972;1093;64272;-76
2021/08/04 06:16:41;;;;;;;2.60;1.80;;;;;;;16.27;76.09;100672.19;124801;1093;64330;-74
2021/08/04 06:19:10;;;;;;;2.53;1.80;;;;;;;16.39;76.07;100669.68;124928;1092;64272;-75
2021/08/04 06:21:37;;;;;;;4.13;1.70;;;;;;;16.52;75.64;100677.63;124894;1093;64258;-76
2021/08/04 06:24:04;;;;;;;4.85;1.45;;;;;;;16.62;75.04;100675.31;124898;1093;64429;-76
2021/08/04 06:26:32;;;;;;;2.43;1.60;;;;;;;16.70;74.32;100679.57;124759;1093;64882;-78
2021/08/04 06:28:59;;;;;;;2.85;1.45;;;;;;;16.75;72.59;100678.95;124990;1093;64266;-76
2021/08/04 06:31:26;;;;;;;2.40;1.50;;;;;;;16.80;73.01;100682.63;124800;1093;64297;-79
2021/08/04 06:33:53;;;;;;;2.53;1.07;;;;;;;16.88;72.75;100676.20;125730;1093;64515;-78
2021/08/04 06:36:20;;;;;;;3.77;1.57;;;;;;;16.99;72.84;100683.53;124919;1093;64383;-74
2021/08/04 06:38:47;;;;;;;3.03;1.50;;;;;;;17.08;72.45;100682.22;124899;1093;64269;-77
2021/08/04 06:41:14;;;;;;;2.00;1.27;;;;;;;17.17;71.83;100679.27;124941;1092;64294;-73
2021/08/04 06:43:41;;;;;;;2.10;1.60;;;;;;;17.27;71.06;100684.97;124800;1093;64288;-73
2021/08/04 06:46:10;;;;;;;2.37;1.50;;;;;;;17.31;70.63;100678.13;124721;1093;64218;-76
2021/08/04 06:48:42;;;;;;;2.80;1.40;;;;;;;17.36;70.70;100683.64;124914;1093;64268;-77
2021/08/04 06:51:11;;;;;;;1.80;1.10;;;;;;;17.40;70.42;100679.48;125153;1093;65355;-76
2021/08/04 06:53:38;;;;;;;4.37;1.57;;;;;;;17.47;70.68;100680.25;125005;1092;64211;-75
2021/08/04 06:56:05;;;;;;;3.00;1.70;;;;;;;17.52;70.74;100677.72;124974;1093;64294;-77
2021/08/04 06:58:32;;;;;;;2.43;1.60;;;;;;;17.61;71.03;100674.75;124981;1092;64345;-77
2021/08/04 07:00:59;;;;;;;2.47;1.60;;;;;;;17.71;70.13;100678.56;124908;1091;64349;-76
2021/08/04 07:03:27;;;;;;;2.30;1.47;;;;;;;17.81;70.02;100680.74;125007;1093;64291;-76
2021/08/04 07:05:54;;;;;;;2.33;1.83;;;;;;;17.96;69.90;100687.61;125055;1092;64195;-76
2021/08/04 07:08:21;;;;;;;2.73;1.53;;;;;;;18.09;68.93;100684.80;124921;1092;64373;-75
2021/08/04 07:10:55;;;;;;;3.85;2.20;;;;;;;18.23;68.77;100688.93;124915;1093;64291;-77
2021/08/04 07:13:22;;;;;;;3.50;1.70;;;;;;;18.32;67.65;100689.47;124825;1093;64722;-79
2021/08/04 07:15:51;;;;;;;4.90;1.63;;;;;;;18.40;67.17;100696.38;124831;1093;64304;-77
2021/08/04 07:18:18;;;;;;;7.57;2.10;;;;;;;18.54;67.43;100695.16;124975;1093;64521;-77
2021/08/04 07:20:45;;;;;;;2.80;1.57;;;;;;;18.77;67.80;100688.23;124949;1093;64281;-76
2021/08/04 07:23:13;;;;;;;4.27;1.30;;;;;;;19.10;66.94;100691.23;124819;1093;64272;-76
2021/08/04 07:25:40;;;;;;;3.67;1.33;;;;;;;19.29;63.71;100685.77;124945;1093;64297;-77
2021/08/04 07:28:07;;;;;;;7.23;2.13;;;;;;;19.35;64.28;100692.92;124958;1093;64297;-76
2021/08/04 07:30:36;;;;;;;6.20;2.20;;;;;;;19.50;63.67;100695.14;124740;1093;64308;-77
2021/08/04 07:33:03;;;;;;;5.17;1.60;;;;;;;19.71;64.08;100691.07;124986;1093;64368;-77
2021/08/04 07:35:30;;;;;;;3.43;1.70;;;;;;;19.92;63.09;100693.14;124788;1093;64295;-80
2021/08/04 07:37:57;;;;;;;3.73;1.57;;;;;;;20.10;62.10;100691.34;124787;1093;64425;-75
2021/08/04 07:40:24;;;;;;;6.67;1.83;;;;;;;20.18;61.89;100693.67;124926;1093;64288;-76
2021/08/04 07:42:51;;;;;;;4.17;1.90;;;;;;;20.28;61.52;100693.88;124928;1093;64245;-78
2021/08/04 07:45:19;;;;;;;3.80;2.03;;;;;;;20.35;61.02;100694.55;124812;1093;64288;-78
2021/08/04 07:47:47;;;;;;;9.87;1.90;;;;;;;20.36;61.02;100690.81;125024;1093;64294;-79
2021/08/04 07:50:15;;;;;;;4.40;1.87;;;;;;;20.42;59.62;100694.39;124797;1093;64315;-78
2021/08/04 07:52:42;;;;;;;4.33;2.03;;;;;;;20.47;60.11;100682.92;125060;1093;64342;-78
2021/08/04 07:55:13;;;;;;;9.00;1.50;;;;;;;20.62;59.82;100683.23;124756;1093;64197;-80
2021/08/04 07:57:40;;;;;;;4.43;1.63;;;;;;;20.86;60.71;100683.09;124795;1092;64272;-78
2021/08/04 08:00:08;;;;;;;4.20;1.67;;;;;;;21.00;59.58;100686.31;124807;1093;64344;-77
2021/08/04 08:02:35;;;;;;;3.53;2.13;;;;;;;21.10;57.96;100691.84;124938;1093;64268;-77
2021/08/04 08:05:03;;;;;;;3.23;1.50;;;;;;;21.20;58.31;100691.20;124971;1093;64217;-78
2021/08/04 08:07:30;;;;;;;2.90;1.50;;;;;;;21.32;56.88;100694.64;124978;1093;64265;-78
2021/08/04 08:09:57;;;;;;;2.93;1.43;;;;;;;21.33;56.78;100693.56;124741;1093;64291;-76
2021/08/04 08:12:25;;;;;;;5.53;1.30;;;;;;;21.39;56.67;100692.58;124777;1093;65876;-75
2021/08/04 08:14:52;;;;;;;2.80;1.03;;;;;;;21.45;56.46;100691.63;124694;1093;64320;-75
2021/08/04 08:17:19;;;;;;;2.80;1.10;;;;;;;21.63;55.76;100690.52;124796;1093;64292;-75
2021/08/04 08:19:46;;;;;;;2.90;1.60;;;;;;;21.69;54.23;100686.02;124897;1092;64233;-77
2021/08/04 08:22:13;;;;;;;2.77;1.40;;;;;;;21.72;53.30;100688.23;124972;1093;64269;-76
2021/08/04 08:24:40;;;;;;;2.87;1.37;;;;;;;21.75;54.26;100693.13;124814;1093;64298;-78
2021/08/04 08:27:07;;;;;;;4.20;1.50;;;;;;;21.88;54.81;100683.84;124730;1093;64370;-76
2021/08/04 08:29:34;;;;;;;3.47;1.63;;;;;;;21.97;53.06;100693.13;124785;1093;65363;-81
2021/08/04 08:32:01;;;;;;;6.37;1.63;;;;;;;21.97;53.68;100693.98;124787;1093;64300;-74
2021/08/04 08:34:29;;;;;;;3.10;1.60;;;;;;;21.98;53.80;100692.89;124805;1093;64278;-77
2021/08/04 08:36:56;;;;;;;3.13;1.40;;;;;;;22.01;53.34;100688.06;125007;1093;64304;-77
2021/08/04 08:39:23;;;;;;;2.20;1.00;;;;;;;22.10;53.93;100689.23;124754;1093;64377;-79
2021/08/04 08:41:50;;;;;;;3.07;1.27;;;;;;;22.14;52.98;100677.70;125079;1093;64306;-83
2021/08/04 08:44:17;;;;;;;3.70;1.50;;;;;;;22.13;52.91;100688.75;124889;1093;64310;-79
2021/08/04 08:46:44;;;;;;;2.90;1.50;;;;;;;21.99;53.34;100688.30;124959;1093;64619;-77
2021/08/04 08:49:12;;;;;;;3.73;1.40;;;;;;;21.69;51.99;100692.23;124861;1092;64294;-82
2021/08/04 08:51:39;;;;;;;5.73;1.53;;;;;;;21.51;53.21;100685.25;124793;1092;64205;-80
2021/08/04 08:54:07;;;;;;;2.00;1.30;;;;;;;21.37;54.82;100692.82;124879;1093;64401;-78
2021/08/04 08:56:34;;;;;;;3.10;1.37;;;;;;;21.24;54.24;100697.75;124873;1092;64294;-80
2021/08/04 08:59:01;;;;;;;3.50;1.57;;;;;;;21.16;54.49;100688.98;124910;1093;64392;-80
2021/08/04 09:01:37;;;;;;;3.53;1.50;;;;;;;21.19;55.50;100690.40;124895;1093;64192;-80
2021/08/04 09:04:09;;;;;;;3.57;1.50;;;;;;;21.20;54.62;100683.92;124859;1093;64313;-78
2021/08/04 09:06:50;;;;;;;4.63;1.30;;;;;;;21.26;54.41;100682.14;126760;1093;61798;-77
2021/08/04 09:09:32;;;;;;;8.27;1.27;;;;;;;21.33;55.26;100688.17;124977;1092;64278;-78
2021/08/04 09:12:05;;;;;;;3.87;1.47;;;;;;;21.36;53.60;100693.09;125122;1093;64288;-79
2021/08/04 09:14:34;;;;;;;2.70;1.30;;;;;;;21.37;54.49;100692.82;125330;1093;64179;-76
2021/08/04 09:17:10;;;;;;;2.75;1.55;;;;;;;21.46;54.95;100682.45;125173;1093;64403;-78
2021/08/04 09:19:47;;;;;;;1.50;0.90;;;;;;;21.43;53.06;100698.34;125154;1093;64272;-78
2021/08/04 09:22:24;;;;;;;4.47;1.40;;;;;;;21.27;54.04;100689.16;124911;1093;64272;-78
2021/08/04 09:25:13;;;;;;;3.60;1.50;;;;;;;21.18;55.01;100686.86;125382;1093;64291;-79
2021/08/04 09:27:56;;;;;;;1.80;1.10;;;;;;;21.15;54.51;100687.36;125217;1093;64272;-79
2021/08/04 09:30:34;;;;;;;2.70;1.60;;;;;;;21.20;55.07;100688.52;125266;1093;64310;-79
2021/08/04 09:33:10;;;;;;;4.10;1.40;;;;;;;21.26;55.68;100687.53;125055;1092;64269;-81
2021/08/04 09:35:46;;;;;;;5.77;1.20;;;;;;;21.52;55.89;100676.06;125030;1093;64262;-76
2021/08/04 09:38:14;;;;;;;3.13;1.50;;;;;;;21.84;54.44;100680.01;124957;1092;64249;-79
2021/08/04 09:41:07;;;;;;;2.50;1.40;;;;;;;22.03;54.11;100670.52;124938;1093;64371;-79
2021/08/04 09:43:34;;;;;;;5.33;1.80;;;;;;;22.36;53.51;100679.59;124937;1093;64256;-79
2021/08/04 09:46:01;;;;;;;6.60;1.83;;;;;;;22.57;53.60;100672.52;125109;1092;64275;-80
2021/08/04 09:48:29;;;;;;;3.93;1.40;;;;;;;22.87;52.34;100668.46;124976;1093;64253;-80
2021/08/04 09:50:59;;;;;;;2.70;1.80;;;;;;;23.02;51.23;100671.31;124994;1093;64185;-79
2021/08/04 09:53:27;;;;;;;3.50;2.10;;;;;;;23.10;51.54;100667.30;125126;1093;64243;-79
2021/08/04 09:56:10;;;;;;;2.73;1.53;;;;;;;23.17;50.53;100665.20;125478;1093;64393;-80
2021/08/04 09:58:49;;;;;;;1.97;1.50;;;;;;;23.19;50.16;100660.35;125110;1093;64275;-79
2021/08/04 10:01:20;;;;;;;3.13;2.00;;;;;;;23.16;50.52;100661.69;125256;1091;64215;-79
2021/08/04 10:04:08;;;;;;;4.63;1.93;;;;;;;23.08;49.60;100664.88;125494;1092;64376;-78
2021/08/04 10:06:37;;;;;;;2.77;1.70;;;;;;;22.88;50.15;100653.84;125099;1093;63085;-79
2021/08/04 10:09:07;;;;;;;2.73;1.50;;;;;;;22.85;51.36;100651.67;125086;1092;64422;-81
2021/08/04 10:11:37;;;;;;;2.87;1.70;;;;;;;22.92;50.76;100654.97;125179;1093;64799;-77
2021/08/04 10:14:05;;;;;;;4.47;1.40;;;;;;;23.01;49.48;100650.73;124960;1092;64358;-79
2021/08/04 10:16:35;;;;;;;4.80;1.85;;;;;;;22.96;49.86;100658.78;124895;1093;64320;-78
2021/08/04 10:19:06;;;;;;;3.97;1.80;;;;;;;22.85;48.66;100660.59;125000;1093;64291;-79
2021/08/04 10:21:35;;;;;;;3.90;1.73;;;;;;;22.70;50.13;100653.16;124883;1093;64272;-78
2021/08/04 10:24:06;;;;;;;4.07;1.93;;;;;;;22.64;50.32;100654.19;124952;1093;64368;-79
2021/08/04 10:26:35;;;;;;;2.33;1.40;;;;;;;22.78;50.79;100649.99;125026;1092;64286;-79
2021/08/04 10:29:04;;;;;;;4.40;1.80;;;;;;;22.96;50.02;100650.67;124941;1093;64267;-78
2021/08/04 10:31:32;;;;;;;3.87;2.13;;;;;;;23.12;50.18;100652.46;125141;1093;64290;-79
2021/08/04 10:34:00;;;;;;;2.10;1.60;;;;;;;23.31;50.82;100646.61;124839;1092;64262;-80
2021/08/04 10:36:39;;;;;;;3.20;1.80;;;;;;;23.56;49.97;100649.47;125120;1093;64297;-81
2021/08/04 10:39:13;;;;;;;3.60;1.80;;;;;;;23.75;47.59;100641.70;125041;1093;64314;-80
2021/08/04 10:41:58;;;;;;;2.75;1.40;;;;;;;23.96;47.47;100631.80;125115;1093;64276;-78
2021/08/04 10:44:25;;;;;;;3.83;1.87;;;;;;;24.15;47.52;100639.45;124906;1092;65172;-78
2021/08/04 10:46:54;;;;;;;3.33;1.83;;;;;;;24.11;46.57;100636.45;125119;1093;64399;-79
2021/08/04 10:49:25;;;;;;;5.67;1.90;;;;;;;23.99;46.89;100628.58;124906;1092;64352;-78
2021/08/04 10:51:55;;;;;;;6.27;1.90;;;;;;;24.01;47.86;100628.28;125015;1093;64247;-80
2021/08/04 10:54:24;;;;;;;3.53;1.80;;;;;;;24.27;46.84;100633.77;125085;1092;64276;-81
2021/08/04 10:56:51;;;;;;;4.15;1.75;;;;;;;24.53;45.36;100635.48;124835;1093;64583;-81
2021/08/04 10:59:34;;;;;;;2.87;1.80;;;;;;;24.52;44.94;100628.42;124980;1092;64163;-80
2021/08/04 11:02:02;;;;;;;1.85;1.30;;;;;;;24.40;43.81;100634.09;125156;1093;64265;-81
2021/08/04 11:04:29;;;;;;;3.37;1.70;;;;;;;24.30;44.64;100636.77;125177;1092;64960;-80
2021/08/04 11:07:08;;;;;;;2.83;1.50;;;;;;;24.28;42.99;100633.52;125003;1093;64198;-80
2021/08/04 11:09:48;;;;;;;3.43;1.37;;;;;;;24.23;42.60;100628.09;125082;1093;64256;-81
2021/08/04 11:12:21;;;;;;;3.27;2.17;;;;;;;24.27;43.11;100631.06;125113;1092;64373;-79
2021/08/04 11:14:49;;;;;;;3.53;1.47;;;;;;;24.35;42.28;100625.92;125247;1091;64310;-80
2021/08/04 11:18:02;;;;;;;3.10;1.43;;;;;;;24.38;41.37;100628.11;125237;1093;64278;-80
2021/08/04 11:20:30;;;;;;;3.07;1.50;;;;;;;24.50;42.13;100627.06;126200;1093;64285;-79
2021/08/04 11:22:57;;;;;;;2.10;1.20;;;;;;;24.62;40.84;100628.44;125758;1093;64291;-79
2021/08/04 11:25:38;;;;;;;2.37;1.20;;;;;;;24.74;41.41;100620.04;125512;1093;64268;-79
2021/08/04 11:28:15;;;;;;;2.97;1.67;;;;;;;24.91;41.87;100624.38;125479;1092;64287;-79